Time;durP1;ratioP1;P1;durP2;ratioP2;P2;SDS_P1;SDS_P2;PMS_P1;PMS_P2;Temp;Humidity;BMP_temperature;BMP_pressure;BME280_temperature;BME280_humidity;BME280_pressure;Samples;Min_cycle;Max_cycle;Signal;HPM_P1;HPM_P2
2021/08/20 00:00:23;;;;;;;;;;;;;;;;;;;;;
2021/08/20 00:20:37;;;;;;;5.07;3.10;;;15.90;99.90;;;;;;6133629;23;1379516;-91
2021/08/20 00:36:40;;;;;;;;;;;;;;;;;;;;;
2021/08/20 00:52:16;;;;;;;;;;;;;;;;;;;;;
2021/08/20 01:32:29;;;;;;;3.55;3.00;;;15.80;99.90;;;;;;5820817;22;11110360;-93
2021/08/20 01:51:47;;;;;;;;;;;;;;;;;;;;;
2021/08/20 02:02:50;;;;;;;;;;;;;;;;;;;;;
2021/08/20 02:06:29;;;;;;;5.57;2.80;;;15.70;99.90;;;;;;5816263;24;20470;-91
2021/08/20 02:42:42;;;;;;;;;;;;;;;;;;;;;
2021/08/20 02:46:44;;;;;;;;;;;;;;;;;;;;;
2021/08/20 02:50:30;;;;;;;5.45;2.80;;;15.70;99.90;;;;;;5035713;28;20056;-92
2021/08/20 03:10:40;;;;;;;8.52;3.20;;;15.70;99.90;;;;;;4938282;28;20123;-92
2021/08/20 03:39:46;;;;;;;3.38;2.33;;;15.70;99.90;;;;;;6223737;22;1841268;-92
2021/08/20 03:48:05;;;;;;;;;;;;;;;;;;;;;
2021/08/20 03:51:32;;;;;;;5.80;2.78;;;15.60;99.90;;;;;;6028235;23;20086;-91
2021/08/20 04:20:43;;;;;;;4.95;2.80;;;15.60;99.90;;;;;;5966145;24;20029;-92
2021/08/20 04:24:14;;;;;;;;;;;;;;;;;;;;;
2021/08/20 04:31:54;;;;;;;;;;;;;;;;;;;;;
2021/08/20 04:35:49;;;;;;;;;;;;;;;;;;;;;
2021/08/20 04:39:15;;;;;;;;;;;;;;;;;;;;;
2021/08/20 04:42:59;;;;;;;;;;;;;;;;;;;;;
2021/08/20 04:47:12;;;;;;;;;;;;;;;;;;;;;
2021/08/20 04:58:28;;;;;;;4.50;3.40;;;15.50;99.90;;;;;;5910610;24;20459;-92
2021/08/20 05:01:44;;;;;;;3.33;2.75;;;15.40;99.90;;;;;;5969185;24;20028;-89
2021/08/20 05:04:34;;;;;;;5.88;2.88;;;15.50;99.90;;;;;;5985814;23;20058;-89
2021/08/20 05:07:23;;;;;;;5.75;3.17;;;15.60;99.90;;;;;;6079190;23;20178;-90
2021/08/20 05:10:13;;;;;;;3.85;2.58;;;15.60;99.90;;;;;;6164315;23;20075;-90
2021/08/20 05:13:01;;;;;;;5.43;2.80;;;15.60;99.90;;;;;;6233512;23;20099;-95
2021/08/20 05:29:22;;;;;;;4.25;2.38;;;15.90;99.90;;;;;;5952599;24;20032;-89
2021/08/20 05:32:09;;;;;;;7.22;2.90;;;16.10;99.90;;;;;;6049616;23;20394;-90
2021/08/20 05:34:58;;;;;;;5.80;2.60;;;16.10;99.90;;;;;;6183893;23;20090;-90
2021/08/20 05:58:05;;;;;;;;;;;;;;;;;;;;;
2021/08/20 06:01:44;;;;;;;;;;;;;;;;;;;;;
2021/08/20 06:05:06;;;;;;;2.47;1.98;;;16.90;99.90;;;;;;6014508;23;20186;-91
2021/08/20 06:07:54;;;;;;;3.85;2.60;;;17.20;99.90;;;;;;6058760;23;20034;-88
2021/08/20 06:10:47;;;;;;;4.60;2.08;;;17.40;99.90;;;;;;6074365;23;20391;-87
2021/08/20 06:13:39;;;;;;;3.50;1.75;;;17.50;99.90;;;;;;6103510;23;20065;-88
2021/08/20 06:16:31;;;;;;;4.57;2.08;;;17.60;99.90;;;;;;6141821;23;20342;-90
2021/08/20 06:19:18;;;;;;;3.10;2.47;;;17.60;99.90;;;;;;6140595;23;20033;-88
2021/08/20 06:22:06;;;;;;;7.10;2.40;;;17.60;99.90;;;;;;6139960;23;20025;-93
2021/08/20 06:24:54;;;;;;;4.35;2.20;;;17.70;99.90;;;;;;6167774;23;20065;-91
2021/08/20 06:27:45;;;;;;;3.65;1.85;;;17.90;99.90;;;;;;6166141;23;20022;-92
2021/08/20 06:30:46;;;;;;;;;;;;;;;;;;;;;
2021/08/20 06:42:34;;;;;;;3.40;2.08;;;18.80;99.90;;;;;;5929373;23;20094;-90
2021/08/20 07:05:55;;;;;;;3.28;2.00;;;20.00;99.90;;;;;;6113088;23;20060;-90
2021/08/20 07:09:02;;;;;;;2.17;1.98;;;20.20;99.90;;;;;;6142493;23;20084;-90
2021/08/20 07:21:09;;;;;;;;;;;;;;;;;;;;;
2021/08/20 07:24:43;;;;;;;;;;;;;;;;;;;;;
2021/08/20 07:37:01;;;;;;;7.50;4.25;;;21.20;99.90;;;;;;5958129;24;20015;-92
2021/08/20 07:40:47;;;;;;;8.15;5.05;;;21.80;99.90;;;;;;6069874;23;20027;-93
2021/08/20 07:43:51;;;;;;;8.57;5.40;;;22.40;99.90;;;;;;6105892;23;20077;-90
2021/08/20 07:46:53;;;;;;;5.47;4.32;;;22.70;99.90;;;;;;6146690;23;20040;-88
2021/08/20 07:49:45;;;;;;;6.53;4.55;;;22.90;99.90;;;;;;6154571;23;20028;-89
2021/08/20 07:52:56;;;;;;;5.55;3.80;;;23.90;99.90;;;;;;6154877;23;20028;-91
2021/08/20 07:56:15;;;;;;;4.32;3.85;;;24.30;99.90;;;;;;6156071;23;20022;-91
2021/08/20 07:59:16;;;;;;;4.70;3.58;;;24.90;98.10;;;;;;6153282;23;20030;-90
2021/08/20 08:02:06;;;;;;;4.00;3.60;;;25.60;94.80;;;;;;6152418;23;20044;-91
2021/08/20 08:09:04;;;;;;;;;;;26.40;88.30;;;;;;6021820;23;20152;-91
2021/08/20 08:12:45;;;;;;;;;;;;;;;;;;;;;
2021/08/20 08:36:50;;;;;;;6.45;3.80;;;26.40;83.80;;;;;;5922245;24;20088;-91
2021/08/20 08:49:13;;;;;;;4.97;3.47;;;25.10;89.50;;;;;;5933212;23;20109;-89
2021/08/20 08:52:57;;;;;;;4.10;3.65;;;24.90;90.50;;;;;;5936060;24;20095;-91
2021/08/20 08:59:49;;;;;;;4.32;3.40;;;24.10;93.00;;;;;;6025711;23;20091;-90
2021/08/20 09:02:36;;;;;;;6.03;4.43;;;23.70;94.60;;;;;;6067083;23;20038;-89
2021/08/20 09:05:47;;;;;;;4.57;3.85;;;23.30;95.10;;;;;;6121922;23;20064;-90
2021/08/20 09:08:37;;;;;;;4.55;3.85;;;23.00;96.30;;;;;;6157017;23;20270;-89
2021/08/20 09:11:32;;;;;;;6.90;3.90;;;23.00;95.60;;;;;;6136787;23;20025;-89
2021/08/20 09:14:32;;;;;;;5.50;4.07;;;22.90;95.80;;;;;;6138810;23;20472;-90
2021/08/20 09:17:33;;;;;;;4.82;4.32;;;23.70;94.70;;;;;;6158820;23;20037;-89
2021/08/20 09:21:19;;;;;;;;;;;;;;;;;;;;;
2021/08/20 09:29:26;;;;;;;;;;;;;;;;;;;;;
2021/08/20 09:32:57;;;;;;;4.18;3.60;;;29.60;68.80;;;;;;5952259;24;20020;-91
2021/08/20 09:35:54;;;;;;;5.10;2.63;;;29.30;68.80;;;;;;5957705;24;20024;-90
2021/08/20 09:39:56;;;;;;;5.07;2.40;;;29.70;67.70;;;;;;5938364;24;20040;-91
2021/08/20 09:43:25;;;;;;;2.88;2.58;;;31.00;58.90;;;;;;5931106;24;20472;-90
2021/08/20 09:58:34;;;;;;;2.28;2.08;;;32.40;51.70;;;;;;5875814;24;20030;-90
2021/08/20 10:01:23;;;;;;;8.68;2.40;;;33.30;51.80;;;;;;5884614;24;20021;-91
2021/08/20 10:04:24;;;;;;;4.00;2.35;;;33.50;51.30;;;;;;5903107;24;20025;-88
2021/08/20 10:07:27;;;;;;;2.83;2.38;;;32.40;50.20;;;;;;5940430;23;20023;-91
2021/08/20 10:10:16;;;;;;;3.28;2.50;;;30.10;51.30;;;;;;6040371;23;20390;-90
2021/08/20 10:13:06;;;;;;;3.13;2.30;;;28.90;59.50;;;;;;6021372;23;20034;-91
2021/08/20 10:19:53;;;;;;;;;;;;;;;;;;;;;
2021/08/20 10:22:50;;;;;;;3.40;2.70;;;26.90;65.30;;;;;;6043541;23;20046;-92
2021/08/20 10:26:21;;;;;;;3.63;2.55;;;26.10;68.90;;;;;;6026147;23;20035;-92
2021/08/20 10:30:15;;;;;;;3.13;2.45;;;25.50;72.30;;;;;;6023354;23;20131;-90
2021/08/20 11:29:31;;;;;;;2.75;2.15;;;33.20;45.40;;;;;;5990263;23;20303;-89
2021/08/20 11:32:38;;;;;;;3.33;1.80;;;33.40;43.30;;;;;;6046106;23;20137;-91
2021/08/20 11:37:07;;;;;;;;;;;;;;;;;;;;;
2021/08/20 11:52:22;;;;;;;5.10;2.00;;;35.80;43.30;;;;;;5826057;24;20126;-86
2021/08/20 11:59:36;;;;;;;1.85;1.75;;;35.60;41.50;;;;;;5889577;24;20028;-88
2021/08/20 12:15:21;;;;;;;2.00;1.80;;;33.90;44.20;;;;;;5918394;24;20037;-90
2021/08/20 12:26:08;;;;;;;;;;;;;;;;;;;;;
2021/08/20 12:29:38;;;;;;;3.05;1.60;;;36.70;38.00;;;;;;6171252;23;20016;-90
2021/08/20 12:32:32;;;;;;;;;;;36.20;38.80;;;;;;6210032;23;20063;-91
2021/08/20 12:35:53;;;;;;;1.80;1.60;;;34.00;42.70;;;;;;6210334;23;19916;-93
2021/08/20 12:39:56;;;;;;;2.03;1.80;;;33.40;43.00;;;;;;6187514;23;20021;-89
2021/08/20 12:42:46;;;;;;;2.83;2.00;;;34.30;40.30;;;;;;6137586;23;20032;-89
2021/08/20 12:45:38;;;;;;;2.83;2.15;;;33.90;43.20;;;;;;6196121;23;20046;-91
2021/08/20 12:48:32;;;;;;;5.07;2.28;;;34.20;41.60;;;;;;6217744;23;20055;-89
2021/08/20 12:51:21;;;;;;;2.60;2.15;;;34.70;40.40;;;;;;6176495;23;20036;-87
2021/08/20 12:54:14;;;;;;;4.28;2.15;;;34.30;41.50;;;;;;6213254;23;20436;-89
2021/08/20 12:57:04;;;;;;;4.38;2.05;;;33.30;43.00;;;;;;6214535;23;20024;-91
2021/08/20 13:00:03;;;;;;;3.80;1.75;;;33.80;42.80;;;;;;6215378;23;20055;-89
2021/08/20 13:03:14;;;;;;;3.10;2.28;;;35.00;38.30;;;;;;6097048;23;20097;-88
2021/08/20 13:06:07;;;;;;;2.22;2.03;;;35.40;40.80;;;;;;6101331;23;20062;-88
2021/08/20 13:09:08;;;;;;;4.85;1.90;;;35.60;42.30;;;;;;6079405;23;20037;-89
2021/08/20 13:12:08;;;;;;;4.10;1.90;;;36.60;41.00;;;;;;6094398;23;20035;-87
2021/08/20 13:14:56;;;;;;;2.55;1.98;;;36.50;39.00;;;;;;6091997;23;20022;-87
2021/08/20 13:17:46;;;;;;;2.67;2.28;;;34.40;41.40;;;;;;6052558;23;20037;-89
2021/08/20 13:20:33;;;;;;;2.85;2.13;;;33.40;43.50;;;;;;6093394;23;20041;-90
2021/08/20 13:23:21;;;;;;;3.63;2.53;;;33.70;43.90;;;;;;6071497;23;20042;-88
2021/08/20 13:26:09;;;;;;;3.17;2.10;;;34.10;42.50;;;;;;6072723;23;20102;-90
2021/08/20 13:28:56;;;;;;;6.00;2.20;;;34.60;42.50;;;;;;6072277;23;20453;-91
2021/08/20 13:31:46;;;;;;;4.47;2.20;;;34.90;41.30;;;;;;6093969;23;20034;-90
2021/08/20 13:34:33;;;;;;;3.22;2.10;;;35.20;40.80;;;;;;6161873;23;20099;-90
2021/08/20 13:37:23;;;;;;;4.63;2.10;;;35.00;41.40;;;;;;6194209;23;20024;-88
2021/08/20 13:40:10;;;;;;;4.50;2.22;;;35.20;41.70;;;;;;6195592;23;20032;-88
2021/08/20 13:43:09;;;;;;;4.35;2.00;;;35.90;40.90;;;;;;6192843;23;20029;-87
2021/08/20 13:46:30;;;;;;;3.65;1.80;;;36.30;40.40;;;;;;6212969;23;20112;-89
2021/08/20 13:49:18;;;;;;;3.83;2.20;;;34.90;40.10;;;;;;6215187;23;20044;-86
2021/08/20 13:52:06;;;;;;;3.65;2.40;;;32.40;45.20;;;;;;6191906;23;20100;-90
2021/08/20 13:54:53;;;;;;;2.83;2.50;;;30.80;47.80;;;;;;6171879;23;20028;-87
2021/08/20 13:58:03;;;;;;;4.03;2.38;;;29.40;50.90;;;;;;6190180;23;20067;-87
2021/08/20 14:01:04;;;;;;;4.38;2.65;;;28.20;53.10;;;;;;6213285;23;20024;-88
2021/08/20 14:04:32;;;;;;;3.28;2.55;;;27.80;53.80;;;;;;6190273;23;20059;-87
2021/08/20 14:07:19;;;;;;;3.92;2.40;;;27.80;54.70;;;;;;6212945;23;20090;-87
2021/08/20 14:10:07;;;;;;;4.40;2.40;;;29.20;52.60;;;;;;6213137;23;20028;-88
2021/08/20 14:12:55;;;;;;;2.85;2.17;;;30.30;49.30;;;;;;6191517;23;20420;-90
2021/08/20 14:15:42;;;;;;;3.28;2.60;;;30.40;50.30;;;;;;6215707;23;20024;-88
2021/08/20 14:18:32;;;;;;;3.53;2.72;;;31.00;48.70;;;;;;6192769;23;20133;-88
2021/08/20 14:21:20;;;;;;;3.65;2.17;;;31.80;47.00;;;;;;6193383;23;20028;-91
2021/08/20 14:24:16;;;;;;;7.75;2.53;;;32.00;45.70;;;;;;6197707;23;20084;-91
2021/08/20 14:27:06;;;;;;;2.28;2.00;;;32.10;46.60;;;;;;6214805;23;20025;-90
2021/08/20 14:29:53;;;;;;;2.70;2.50;;;32.40;46.60;;;;;;6214558;23;20032;-90
2021/08/20 14:32:45;;;;;;;3.72;2.10;;;31.30;49.10;;;;;;6219155;23;20079;-90
2021/08/20 14:35:43;;;;;;;3.17;2.33;;;30.60;49.50;;;;;;6196613;23;20396;-88
2021/08/20 14:38:30;;;;;;;3.40;2.45;;;30.90;49.50;;;;;;6219574;23;20111;-90
2021/08/20 14:41:29;;;;;;;3.45;2.67;;;31.00;49.40;;;;;;6199329;23;20151;-91
2021/08/20 14:44:18;;;;;;;3.03;2.60;;;31.10;51.10;;;;;;6191836;23;20028;-89
2021/08/20 14:47:07;;;;;;;4.78;2.40;;;31.40;48.00;;;;;;6211944;23;20478;-88
2021/08/20 14:49:57;;;;;;;9.80;2.80;;;31.10;48.60;;;;;;6215172;23;20020;-89
2021/08/20 14:52:45;;;;;;;3.30;2.67;;;30.50;49.50;;;;;;6216464;23;20277;-89
2021/08/20 14:55:34;;;;;;;3.30;2.65;;;30.80;49.20;;;;;;6214959;23;20040;-92
2021/08/20 14:58:22;;;;;;;5.30;2.88;;;30.40;48.90;;;;;;6218285;23;20051;-90
2021/08/20 15:01:13;;;;;;;6.22;3.30;;;29.20;52.80;;;;;;6193259;23;20043;-90
2021/08/20 15:04:05;;;;;;;4.25;2.83;;;28.10;53.70;;;;;;6196536;23;20059;-88
2021/08/20 15:06:53;;;;;;;3.95;2.70;;;27.00;57.40;;;;;;6196193;23;20020;-93
2021/08/20 15:09:41;;;;;;;3.80;3.00;;;26.30;58.40;;;;;;6194643;23;20028;-89
2021/08/20 15:12:42;;;;;;;4.00;2.60;;;25.70;61.10;;;;;;6193833;23;20420;-90
2021/08/20 15:15:31;;;;;;;3.90;2.92;;;25.30;61.50;;;;;;6220663;23;20024;-90
2021/08/20 15:18:21;;;;;;;6.07;2.78;;;25.00;63.10;;;;;;6219892;23;20020;-91
2021/08/20 15:21:12;;;;;;;3.63;2.65;;;24.80;63.70;;;;;;6216651;23;20021;-89
2021/08/20 15:23:59;;;;;;;3.92;3.13;;;24.50;65.80;;;;;;6213613;23;20042;-88
2021/08/20 15:26:54;;;;;;;4.22;2.80;;;24.30;66.70;;;;;;6211790;23;20416;-87
2021/08/20 15:29:41;;;;;;;5.85;3.47;;;24.30;66.20;;;;;;6171351;23;20113;-88
2021/08/20 15:32:32;;;;;;;4.30;3.25;;;24.00;65.80;;;;;;6212204;23;20032;-89
2021/08/20 15:35:21;;;;;;;3.50;2.78;;;24.10;68.40;;;;;;6211666;23;20033;-87
2021/08/20 15:38:11;;;;;;;3.13;2.60;;;24.50;65.00;;;;;;6193316;23;20031;-87
2021/08/20 15:41:01;;;;;;;4.45;3.17;;;25.00;62.70;;;;;;6221773;23;20034;-91
2021/08/20 15:43:51;;;;;;;4.60;2.65;;;25.40;62.20;;;;;;6202537;23;20028;-90
2021/08/20 15:46:42;;;;;;;4.60;2.72;;;25.90;60.40;;;;;;6204832;23;20357;-91
2021/08/20 15:49:56;;;;;;;3.60;2.63;;;26.80;59.10;;;;;;6202277;23;20025;-89
2021/08/20 15:52:47;;;;;;;4.53;2.55;;;27.90;56.90;;;;;;6198529;23;20347;-91
2021/08/20 15:55:39;;;;;;;2.50;2.22;;;28.30;55.00;;;;;;6216227;23;20389;-86
2021/08/20 15:58:37;;;;;;;4.80;3.13;;;27.80;55.80;;;;;;6214604;23;20103;-89
2021/08/20 16:01:28;;;;;;;3.78;2.83;;;26.70;58.50;;;;;;6194054;23;20116;-89
2021/08/20 16:04:16;;;;;;;3.22;2.70;;;26.30;60.80;;;;;;6192733;23;20032;-89
2021/08/20 16:07:06;;;;;;;5.88;2.80;;;25.70;63.90;;;;;;6172721;23;20024;-88
2021/08/20 16:09:56;;;;;;;4.38;3.05;;;25.20;67.30;;;;;;6193751;23;20025;-92
2021/08/20 16:12:43;;;;;;;3.72;2.58;;;25.30;64.90;;;;;;6172614;23;20024;-90
2021/08/20 16:15:31;;;;;;;5.30;3.00;;;26.20;64.40;;;;;;6196262;23;20125;-90
2021/08/20 16:18:18;;;;;;;4.43;2.90;;;26.40;63.00;;;;;;6177691;23;20025;-90
2021/08/20 16:21:08;;;;;;;3.80;2.80;;;25.70;64.30;;;;;;6216744;23;20035;-91
2021/08/20 16:23:57;;;;;;;3.60;2.90;;;25.10;68.60;;;;;;6195348;23;20099;-88
2021/08/20 16:27:05;;;;;;;5.00;3.20;;;24.40;70.10;;;;;;6196518;23;20029;-90
2021/08/20 16:30:03;;;;;;;5.10;3.60;;;23.90;72.80;;;;;;6194516;23;20032;-90
2021/08/20 16:32:54;;;;;;;5.15;3.08;;;23.70;74.70;;;;;;6194359;23;20035;-87
2021/08/20 16:35:44;;;;;;;3.40;3.10;;;23.80;74.70;;;;;;6197779;23;20021;-91
2021/08/20 16:38:36;;;;;;;4.13;3.00;;;24.00;74.40;;;;;;6217749;23;20039;-89
2021/08/20 16:41:24;;;;;;;3.83;2.70;;;24.00;74.80;;;;;;6216090;23;20033;-86
2021/08/20 16:44:12;;;;;;;3.63;3.10;;;23.90;72.80;;;;;;6217177;23;20031;-90
2021/08/20 16:47:01;;;;;;;3.20;2.90;;;23.70;74.30;;;;;;6198244;23;20163;-89
2021/08/20 16:49:49;;;;;;;3.88;3.15;;;23.40;74.00;;;;;;6202540;23;20080;-88
2021/08/20 16:52:38;;;;;;;4.47;3.58;;;23.20;76.50;;;;;;6221237;23;20024;-89
2021/08/20 16:55:25;;;;;;;5.65;3.08;;;23.00;77.20;;;;;;6201325;23;20031;-88
2021/08/20 16:58:13;;;;;;;4.68;3.30;;;22.80;78.70;;;;;;6220580;23;20025;-86
2021/08/20 17:01:05;;;;;;;4.93;3.30;;;22.60;79.90;;;;;;6221050;23;20052;-88
2021/08/20 17:03:53;;;;;;;6.05;3.20;;;22.40;80.70;;;;;;6196415;23;20466;-85
2021/08/20 17:06:43;;;;;;;8.00;3.30;;;22.30;81.60;;;;;;6200659;23;20048;-88
2021/08/20 17:09:31;;;;;;;4.53;3.33;;;22.10;82.10;;;;;;6197395;23;20039;-88
2021/08/20 17:12:21;;;;;;;4.45;3.33;;;22.00;84.20;;;;;;6220839;23;20025;-85
2021/08/20 17:15:12;;;;;;;5.07;3.47;;;21.80;84.80;;;;;;6199982;23;20029;-87
2021/08/20 17:18:04;;;;;;;4.53;3.28;;;21.70;86.40;;;;;;6211931;23;20032;-89
2021/08/20 17:20:52;;;;;;;5.22;3.35;;;21.60;89.20;;;;;;6202829;23;20035;-89
2021/08/20 17:23:39;;;;;;;5.20;3.30;;;21.50;90.10;;;;;;6204505;23;20040;-89
2021/08/20 17:26:39;;;;;;;5.32;3.30;;;21.40;90.70;;;;;;6224311;23;20091;-89
2021/08/20 17:33:34;;;;;;;5.13;3.72;;;21.20;91.30;;;;;;6219121;23;20004;-91
2021/08/20 17:36:27;;;;;;;5.65;3.42;;;21.00;91.80;;;;;;6198043;23;20083;-90
2021/08/20 17:39:21;;;;;;;8.25;2.97;;;20.90;92.40;;;;;;6200535;23;20029;-90
2021/08/20 17:42:12;;;;;;;5.22;3.47;;;20.70;90.90;;;;;;6223364;23;20059;-88
2021/08/20 17:45:01;;;;;;;5.40;3.22;;;20.60;92.00;;;;;;6198903;23;20035;-88
2021/08/20 17:47:57;;;;;;;5.53;3.30;;;20.50;92.70;;;;;;6201785;23;20159;-88
2021/08/20 17:50:45;;;;;;;4.53;3.13;;;20.30;92.90;;;;;;6220849;23;20021;-88
2021/08/20 17:53:35;;;;;;;5.70;4.00;;;20.30;93.70;;;;;;6218453;23;20039;-91
2021/08/20 17:56:23;;;;;;;4.75;3.42;;;20.00;94.50;;;;;;6221622;23;20044;-89
2021/08/20 17:59:10;;;;;;;4.97;3.50;;;19.80;95.20;;;;;;6219723;23;20100;-88
2021/08/20 18:02:01;;;;;;;8.05;3.10;;;19.80;95.50;;;;;;6198238;23;20028;-89
2021/08/20 18:05:02;;;;;;;6.53;3.50;;;19.70;95.60;;;;;;6221366;23;20036;-90
2021/08/20 18:07:51;;;;;;;6.00;3.58;;;19.50;96.90;;;;;;6221042;23;20432;-90
2021/08/20 18:11:03;;;;;;;4.85;3.63;;;19.40;96.00;;;;;;6220002;23;20025;-90
2021/08/20 18:14:10;;;;;;;8.48;3.97;;;19.30;99.10;;;;;;6201928;23;20021;-89
2021/08/20 18:18:08;;;;;;;;;;;;;;;;;;;;;
2021/08/20 18:21:03;;;;;;;6.25;3.45;;;19.00;99.20;;;;;;6223043;23;20087;-89
2021/08/20 18:28:19;;;;;;;7.70;3.78;;;18.80;99.90;;;;;;6110157;23;20150;-92
2021/08/20 18:32:39;;;;;;;4.20;3.80;;;18.60;99.90;;;;;;6082523;23;20231;-91
2021/08/20 18:40:08;;;;;;;4.57;3.80;;;18.30;99.90;;;;;;6062881;23;20030;-89
2021/08/20 18:43:11;;;;;;;4.95;3.42;;;18.20;99.90;;;;;;6071125;23;20102;-93
2021/08/20 18:46:39;;;;;;;5.35;3.65;;;18.10;99.90;;;;;;6087807;23;20157;-90
2021/08/20 18:49:34;;;;;;;5.45;3.63;;;18.10;99.90;;;;;;6110093;23;20057;-89
2021/08/20 18:52:51;;;;;;;7.65;4.93;;;18.00;99.90;;;;;;6118420;23;20028;-89
2021/08/20 18:56:25;;;;;;;8.05;4.47;;;17.90;99.90;;;;;;6116651;23;20122;-90
2021/08/20 18:59:36;;;;;;;7.50;4.15;;;17.90;99.90;;;;;;6096510;23;20109;-89
2021/08/20 19:02:28;;;;;;;8.38;4.38;;;17.80;99.90;;;;;;6099218;23;20030;-91
2021/08/20 19:05:20;;;;;;;11.23;4.40;;;17.80;99.90;;;;;;6101735;23;20188;-90
2021/08/20 19:08:09;;;;;;;8.82;3.92;;;17.80;99.90;;;;;;6099487;23;20133;-90
2021/08/20 19:11:02;;;;;;;6.70;4.45;;;17.80;99.90;;;;;;6097448;23;20022;-90
2021/08/20 19:14:04;;;;;;;;;;;;;;;;;;;;;
2021/08/20 19:16:59;;;;;;;8.27;4.13;;;17.90;99.90;;;;;;6110445;23;20030;-90
2021/08/20 19:20:45;;;;;;;5.28;4.07;;;17.80;99.90;;;;;;6127335;23;20053;-91
2021/08/20 20:18:03;;;;;;;;;;;;;;;;;;;;;
2021/08/20 20:40:45;;;;;;;8.20;5.83;;;16.10;99.90;;;;;;5789939;23;9544760;-92
2021/08/20 20:43:56;;;;;;;;;;;;;;;;;;;;;
2021/08/20 20:47:35;;;;;;;;;;;;;;;;;;;;;
